Iliamna, Alaska
Current Conditions -  °F | °C
As of 4:53 AM on Thursday 23 Oct 2014 (Local Time) from PAIL Reporting Station
Broken Clouds Broken Clouds  
Wind Chill: 24°   Ceiling: 3300
Heat Index: 30°   Visibility: 10mi
Dew Point: 22°   Wind: 6mph
Humidity: 72%   Direction: 290°WNW
Pressure: 29.76"   Gusts: NA
Location:  59.76°N, 154.83°W
Report Text: PAIL 231253Z AUTO 29005KT 10SM BKN033 M01/M06 A2976 RMK AO2 SLP082 T10111056 TSNO
Loading
Personal Weather Stations






























Interactive Weather Map
Tropical Storm Tracking
New forecast layout! Learn more

10-Day Weather Forecast

Advertisements
Track Severe Weather on mobile